Orto / Ocaso: 06:29 / 17:32 UTC (Datos para LEAX 21-10-2019)

[fuente: ADDS]

METAR:


LEMG 210730Z 30007KT 9999 FEW020 11/08 Q1017 NOSIG =
TAF LEMG 210500Z 2106/2206 29008KT 9999 FEW035 TX22/2113Z TN11/2106Z BECMG 2111/2113 14006KT BECMG 2118/2121 29006KT LEGR 210730Z 00000KT CAVOK 05/05 Q1018 =
TAF LEGR 210200Z 2103/2203 VRB02KT 9999 FEW040 TX19/2115Z TN04/2106Z PROB40 TEMPO 2103/2109 4000 BR PROB30 TEMPO 2103/2109 0500 FG VV001 LEZL 210730Z 01004KT 330V070 CAVOK 10/09 Q1017 NOSIG =
TAF LEZL 210200Z 2103/2203 05004KT 9999 FEW040 TX21/2115Z TN10/2106Z PROB30 TEMPO 2103/2108 4000 BR LEAM 210730Z 33012KT 9999 FEW050 14/06 Q1016 =
TAF LEAM 210200Z 2103/2203 34008KT 9999 SCT040 TX20/2113Z TN14/2105Z PROB30 TEMPO 2108/2120 RA PROB40 TEMPO 2112/2117 18010KT TEMPO 2120/2203 4000 SHRA SCT020 SCT030TCU LEBA 210730Z 00000KT 9999 FEW045 11/10 Q1017 =
TAF LEBA 210500Z 2106/2115 08006KT 9999 FEW020 PROB30 TEMPO 2106/2109 4000 BR BKN010 LEJR 210730Z 00000KT CAVOK 09/09 Q1017 =
TAF LEJR 210500Z 2106/2206 34004KT 9999 FEW040 TX21/2115Z TN07/2206Z PROB30 TEMPO 2106/2109 4000 BR GEML 210730Z VRB01KT 9999 -DZ SCT037 15/14 Q1017 =
TAF GEML 210200Z 2103/2203 15004KT 9999 BKN040 TX20/2113Z TN15/2105Z PROB30 TEMPO 2103/2109 RA TEMPO 2120/2203 26010KT 4000 RA LXGB 210724Z 27004KT 9999 FEW020 14/11 Q1017 NOSIG RMK BLU BLU =
TAF LXGB 210427Z 2106/2115 25007KT 9999 FEW020

TAFOR:


TAF LEMG 210500Z 2106/2206 29008KT 9999 FEW035 TX22/2113Z TN11/2106Z BECMG 2111/2113 14006KT BECMG 2118/2121 29006KT =
TAF LEGR 210200Z 2103/2203 VRB02KT 9999 FEW040 TX19/2115Z TN04/2106Z PROB40 TEMPO 2103/2109 4000 BR PROB30 TEMPO 2103/2109 0500 FG VV001 =
TAF LEZL 210200Z 2103/2203 05004KT 9999 FEW040 TX21/2115Z TN10/2106Z PROB30 TEMPO 2103/2108 4000 BR =
TAF LEAM 210200Z 2103/2203 34008KT 9999 SCT040 TX20/2113Z TN14/2105Z PROB30 TEMPO 2108/2120 RA PROB40 TEMPO 2112/2117 18010KT TEMPO 2120/2203 4000 SHRA SCT020 SCT030TCU =
TAF LEBA 210500Z 2106/2115 08006KT 9999 FEW020 PROB30 TEMPO 2106/2109 4000 BR BKN010 =
TAF LEJR 210500Z 2106/2206 34004KT 9999 FEW040 TX21/2115Z TN07/2206Z PROB30 TEMPO 2106/2109 4000 BR =
TAF GEML 210200Z 2103/2203 15004KT 9999 BKN040 TX20/2113Z TN15/2105Z PROB30 TEMPO 2103/2109 RA TEMPO 2120/2203 26010KT 4000 RA =
TAF LXGB 210427Z 2106/2115 25007KT 9999 FEW020 =

Recuerde que, aunque regularmente actualizada, la información meteorológica aquí presentada no debe ser utilizada para la planificación de vuelos. Si lo desea, puede consultar la información meteorológica adecuada, tanto de aeródromos como en ruta, por las vías oficialmente establecidas en la legislación -> AQUí

Utilizamos "cookies" propias y de terceros para analizar nuestros servicios, medir las audiencias, personalizar el contenido que ofrecemos y mostrar información adaptada a sus intereses mediante la obtención de los datos necesarios para perfilar sus hábitos de navegación e inferir grupos de interés, siempre de modo anónimo. Si continúa utilizando el sitio web AEROCLUBMALAGA.COM, significa que acepta sus términos y condiciones y el uso de "cookies" al utilizar el sitio web y nuestros servicios. Asimismo, podemos utilizar fuentes de datos externas para elaborar estos grupos de interés, así compartir los análisis de navegación y los grupos de interés inferidos con terceros con el objetivo de personalizar los contenidos. Para obtener más información sobre las cookies que utilizamos y cómo eliminarlas, consulte nuestra política de privacidad.

Acepto las cookies de esta página web.
EU Cookie Directive plugin by www.channeldigital.co.uk